Point Lay, AK (99759)

12:44 AM AKDT on August 25, 2016 (GMT -0800)
Point Lay | | Change Station

Elev 23 ft 69.73 °N, 163.01 °W | Updated 48 minutes ago

Clear
Clear
40 °F
Feels Like 34 °F
N
8
Wind Variable Wind from SE

Today
High -- | Low -- °F
--% Chance of Precip.
Yesterday
High -- | Low -- °F
Precip. -- in
Pressure 30.05 in
Visibility 10.0 miles
Clouds Clear
Windchill 34 °F
Dew Point 38 °F
Humidity 93%
Rainfall 0.00 in
Snow Depth Not available.
6:44 AM 11:01 PM
Waning Gibbous, 48% visible
METAR PPIZ 250756Z AUTO 13007KT 10SM CLR 04/03 A3003 RMK AO2 SLP175 T00440033 TSNO
Pressure 30.05 in
Visibility 10.0 miles
Clouds Clear
Windchill 34 °F
Dew Point 38 °F
Humidity 93%
Rainfall 0.00 in
Snow Depth Not available.
6:44 AM 11:01 PM
Waning Gibbous, 48% visible
METAR PPIZ 250756Z AUTO 13007KT 10SM CLR 04/03 A3003 RMK AO2 SLP175 T00440033 TSNO

10-Day Weather Forecast

Almanac

Astronomy

Aug. 25, 2016 Rise Set
Actual Time
Civil Twilight
Nautical Twilight
Astronomical Twilight
Moon
Length of Visible Light
Length of Day
Tomorrow will be .
, % of the Moon is Illuminated

Today's Extremes

State Highs State Lows

Community

WunderPhotos

Upload Photos

1,934,814 photos uploaded!

WunderBlog® & News

Nearby

Air Quality

  Air Quality AQ Index Pollutant
Not available.

Snow Depth

Station Depth Elevation

Earthquake Activity

City Distance Mag. Time & Date
Minimum magnitude displayed is 2.5.

Coastal Water Temperatures

Place Temperature

Stations

Nearby Weather Stations

Station Location Temp. Windchill Dew Point Humidity Wind Precip. Elev Updated Type
                   

Watches & Warnings

There are currently no watches in effect.